sensor_id;sensor_type;location;lat;lon;timestamp;P1;durP1;ratioP1;P2;durP2;ratioP2
30249;SDS011;17064;47.974;13.826;2023-06-04T00:01:30;5.15;;;1.80;;
30249;SDS011;17064;47.974;13.826;2023-06-04T00:06:31;2.70;;;1.60;;
30249;SDS011;17064;47.974;13.826;2023-06-04T00:11:32;3.88;;;2.05;;
30249;SDS011;17064;47.974;13.826;2023-06-04T00:16:34;1.65;;;1.50;;
30249;SDS011;17064;47.974;13.826;2023-06-04T00:21:35;3.55;;;1.42;;
30249;SDS011;17064;47.974;13.826;2023-06-04T00:26:36;2.85;;;1.80;;
30249;SDS011;17064;47.974;13.826;2023-06-04T00:31:36;3.83;;;1.60;;
30249;SDS011;17064;47.974;13.826;2023-06-04T00:36:37;2.20;;;1.50;;
30249;SDS011;17064;47.974;13.826;2023-06-04T00:41:39;2.45;;;1.40;;
30249;SDS011;17064;47.974;13.826;2023-06-04T00:46:39;3.10;;;1.75;;
30249;SDS011;17064;47.974;13.826;2023-06-04T00:51:40;2.00;;;1.55;;
30249;SDS011;17064;47.974;13.826;2023-06-04T00:56:41;3.67;;;2.00;;
30249;SDS011;17064;47.974;13.826;2023-06-04T01:06:57;2.83;;;1.88;;
30249;SDS011;17064;47.974;13.826;2023-06-04T01:12:03;2.47;;;1.83;;
30249;SDS011;17064;47.974;13.826;2023-06-04T01:17:26;7.57;;;1.80;;
30249;SDS011;17064;47.974;13.826;2023-06-04T01:22:42;4.13;;;2.20;;
30249;SDS011;17064;47.974;13.826;2023-06-04T01:28:02;2.83;;;1.83;;
30249;SDS011;17064;47.974;13.826;2023-06-04T01:33:04;4.03;;;1.75;;
30249;SDS011;17064;47.974;13.826;2023-06-04T01:38:06;3.38;;;2.05;;
30249;SDS011;17064;47.974;13.826;2023-06-04T01:43:07;3.22;;;2.10;;
30249;SDS011;17064;47.974;13.826;2023-06-04T01:48:08;2.97;;;2.00;;
30249;SDS011;17064;47.974;13.826;2023-06-04T01:53:09;3.70;;;1.92;;
30249;SDS011;17064;47.974;13.826;2023-06-04T01:58:09;2.58;;;1.98;;
30249;SDS011;17064;47.974;13.826;2023-06-04T02:03:10;3.25;;;1.92;;
30249;SDS011;17064;47.974;13.826;2023-06-04T02:08:14;2.65;;;1.50;;
30249;SDS011;17064;47.974;13.826;2023-06-04T02:13:21;4.30;;;1.77;;
30249;SDS011;17064;47.974;13.826;2023-06-04T02:18:22;7.55;;;1.92;;
30249;SDS011;17064;47.974;13.826;2023-06-04T02:23:24;2.58;;;1.70;;
30249;SDS011;17064;47.974;13.826;2023-06-04T02:28:24;4.07;;;1.70;;
30249;SDS011;17064;47.974;13.826;2023-06-04T02:33:26;3.30;;;1.80;;
30249;SDS011;17064;47.974;13.826;2023-06-04T02:38:26;4.57;;;1.77;;
30249;SDS011;17064;47.974;13.826;2023-06-04T02:43:27;1.77;;;1.60;;
30249;SDS011;17064;47.974;13.826;2023-06-04T02:48:28;5.05;;;2.38;;
30249;SDS011;17064;47.974;13.826;2023-06-04T02:53:28;5.53;;;1.73;;
30249;SDS011;17064;47.974;13.826;2023-06-04T02:58:29;5.78;;;2.60;;
30249;SDS011;17064;47.974;13.826;2023-06-04T03:03:31;4.75;;;2.10;;
30249;SDS011;17064;47.974;13.826;2023-06-04T03:08:33;5.97;;;2.13;;
30249;SDS011;17064;47.974;13.826;2023-06-04T03:13:33;3.78;;;2.33;;
30249;SDS011;17064;47.974;13.826;2023-06-04T03:18:37;3.00;;;2.13;;
30249;SDS011;17064;47.974;13.826;2023-06-04T03:23:40;10.93;;;2.80;;
30249;SDS011;17064;47.974;13.826;2023-06-04T03:28:41;5.53;;;1.83;;
30249;SDS011;17064;47.974;13.826;2023-06-04T03:33:41;6.95;;;1.77;;
30249;SDS011;17064;47.974;13.826;2023-06-04T03:38:42;2.95;;;2.00;;
30249;SDS011;17064;47.974;13.826;2023-06-04T03:48:46;3.13;;;1.90;;
30249;SDS011;17064;47.974;13.826;2023-06-04T03:53:47;4.05;;;1.92;;
30249;SDS011;17064;47.974;13.826;2023-06-04T03:58:47;2.92;;;2.00;;
30249;SDS011;17064;47.974;13.826;2023-06-04T04:03:48;14.35;;;2.58;;
30249;SDS011;17064;47.974;13.826;2023-06-04T04:08:49;6.80;;;2.53;;
30249;SDS011;17064;47.974;13.826;2023-06-04T04:13:50;2.53;;;1.83;;
30249;SDS011;17064;47.974;13.826;2023-06-04T04:18:51;4.78;;;2.05;;
30249;SDS011;17064;47.974;13.826;2023-06-04T04:23:51;3.53;;;2.10;;
30249;SDS011;17064;47.974;13.826;2023-06-04T04:28:52;3.83;;;2.05;;
30249;SDS011;17064;47.974;13.826;2023-06-04T04:33:58;3.75;;;1.88;;
30249;SDS011;17064;47.974;13.826;2023-06-04T04:39:00;3.33;;;1.67;;
30249;SDS011;17064;47.974;13.826;2023-06-04T04:44:04;3.88;;;2.85;;
30249;SDS011;17064;47.974;13.826;2023-06-04T04:49:05;4.53;;;1.88;;
30249;SDS011;17064;47.974;13.826;2023-06-04T04:54:06;4.15;;;1.98;;
30249;SDS011;17064;47.974;13.826;2023-06-04T04:59:07;4.22;;;2.17;;
30249;SDS011;17064;47.974;13.826;2023-06-04T05:04:07;7.32;;;2.70;;
30249;SDS011;17064;47.974;13.826;2023-06-04T05:09:08;5.75;;;2.22;;
30249;SDS011;17064;47.974;13.826;2023-06-04T05:14:09;6.30;;;2.40;;
30249;SDS011;17064;47.974;13.826;2023-06-04T05:19:10;3.25;;;1.90;;
30249;SDS011;17064;47.974;13.826;2023-06-04T05:24:11;9.27;;;2.40;;
30249;SDS011;17064;47.974;13.826;2023-06-04T05:29:12;4.72;;;2.05;;
30249;SDS011;17064;47.974;13.826;2023-06-04T05:34:13;7.03;;;2.40;;
30249;SDS011;17064;47.974;13.826;2023-06-04T05:39:16;3.72;;;1.90;;
30249;SDS011;17064;47.974;13.826;2023-06-04T05:44:18;5.53;;;2.30;;
30249;SDS011;17064;47.974;13.826;2023-06-04T05:49:19;5.75;;;2.40;;
30249;SDS011;17064;47.974;13.826;2023-06-04T05:54:20;7.13;;;3.10;;
30249;SDS011;17064;47.974;13.826;2023-06-04T05:59:21;5.03;;;2.90;;
30249;SDS011;17064;47.974;13.826;2023-06-04T06:04:21;7.07;;;3.13;;
30249;SDS011;17064;47.974;13.826;2023-06-04T06:09:22;6.55;;;3.22;;
30249;SDS011;17064;47.974;13.826;2023-06-04T06:14:23;13.57;;;2.50;;
30249;SDS011;17064;47.974;13.826;2023-06-04T06:19:24;5.03;;;2.38;;
30249;SDS011;17064;47.974;13.826;2023-06-04T06:24:24;4.22;;;2.15;;
30249;SDS011;17064;47.974;13.826;2023-06-04T06:29:25;3.60;;;1.92;;
30249;SDS011;17064;47.974;13.826;2023-06-04T06:34:26;3.75;;;2.30;;
30249;SDS011;17064;47.974;13.826;2023-06-04T06:39:27;3.53;;;2.20;;
30249;SDS011;17064;47.974;13.826;2023-06-04T06:44:27;6.55;;;2.20;;
30249;SDS011;17064;47.974;13.826;2023-06-04T06:49:28;6.97;;;2.70;;
30249;SDS011;17064;47.974;13.826;2023-06-04T06:54:29;3.72;;;1.80;;
30249;SDS011;17064;47.974;13.826;2023-06-04T06:59:29;6.57;;;2.30;;
30249;SDS011;17064;47.974;13.826;2023-06-04T07:04:30;8.02;;;2.05;;
30249;SDS011;17064;47.974;13.826;2023-06-04T07:09:31;17.88;;;2.60;;
30249;SDS011;17064;47.974;13.826;2023-06-04T07:14:31;4.57;;;2.30;;
30249;SDS011;17064;47.974;13.826;2023-06-04T07:19:32;5.82;;;2.35;;
30249;SDS011;17064;47.974;13.826;2023-06-04T07:24:33;8.45;;;2.17;;
30249;SDS011;17064;47.974;13.826;2023-06-04T07:29:33;4.78;;;2.08;;
30249;SDS011;17064;47.974;13.826;2023-06-04T07:34:34;11.43;;;2.33;;
30249;SDS011;17064;47.974;13.826;2023-06-04T07:39:37;4.32;;;2.20;;
30249;SDS011;17064;47.974;13.826;2023-06-04T07:44:38;4.20;;;1.80;;
30249;SDS011;17064;47.974;13.826;2023-06-04T07:49:39;4.90;;;2.33;;
30249;SDS011;17064;47.974;13.826;2023-06-04T07:54:40;5.68;;;2.00;;
30249;SDS011;17064;47.974;13.826;2023-06-04T07:59:41;3.65;;;2.17;;
30249;SDS011;17064;47.974;13.826;2023-06-04T08:04:42;5.88;;;2.10;;
30249;SDS011;17064;47.974;13.826;2023-06-04T08:09:43;9.70;;;2.33;;
30249;SDS011;17064;47.974;13.826;2023-06-04T08:14:45;4.13;;;2.38;;
30249;SDS011;17064;47.974;13.826;2023-06-04T08:19:46;5.63;;;2.00;;
30249;SDS011;17064;47.974;13.826;2023-06-04T08:24:46;4.75;;;2.45;;
30249;SDS011;17064;47.974;13.826;2023-06-04T08:29:47;4.85;;;2.15;;
30249;SDS011;17064;47.974;13.826;2023-06-04T08:34:48;4.28;;;2.25;;
30249;SDS011;17064;47.974;13.826;2023-06-04T08:39:48;1.88;;;1.58;;
30249;SDS011;17064;47.974;13.826;2023-06-04T08:44:52;7.88;;;2.30;;
30249;SDS011;17064;47.974;13.826;2023-06-04T08:49:53;6.00;;;2.53;;
30249;SDS011;17064;47.974;13.826;2023-06-04T08:54:59;9.73;;;3.47;;
30249;SDS011;17064;47.974;13.826;2023-06-04T09:00:01;6.17;;;1.93;;
30249;SDS011;17064;47.974;13.826;2023-06-04T09:05:05;3.95;;;1.70;;
30249;SDS011;17064;47.974;13.826;2023-06-04T09:10:10;3.45;;;2.15;;
30249;SDS011;17064;47.974;13.826;2023-06-04T09:15:15;8.45;;;2.63;;
30249;SDS011;17064;47.974;13.826;2023-06-04T09:20:19;9.65;;;2.40;;
30249;SDS011;17064;47.974;13.826;2023-06-04T09:25:25;22.80;;;3.25;;
30249;SDS011;17064;47.974;13.826;2023-06-04T09:30:26;4.05;;;1.83;;
30249;SDS011;17064;47.974;13.826;2023-06-04T09:35:27;3.63;;;2.75;;
30249;SDS011;17064;47.974;13.826;2023-06-04T09:40:37;3.30;;;2.20;;
30249;SDS011;17064;47.974;13.826;2023-06-04T09:45:38;6.82;;;2.60;;
30249;SDS011;17064;47.974;13.826;2023-06-04T09:50:39;6.53;;;2.22;;
30249;SDS011;17064;47.974;13.826;2023-06-04T09:55:42;7.30;;;2.55;;
30249;SDS011;17064;47.974;13.826;2023-06-04T10:00:43;5.37;;;1.97;;
30249;SDS011;17064;47.974;13.826;2023-06-04T10:05:45;5.38;;;2.38;;
30249;SDS011;17064;47.974;13.826;2023-06-04T10:10:46;5.82;;;3.05;;
30249;SDS011;17064;47.974;13.826;2023-06-04T10:15:49;4.38;;;2.60;;
30249;SDS011;17064;47.974;13.826;2023-06-04T10:20:50;5.87;;;2.47;;
30249;SDS011;17064;47.974;13.826;2023-06-04T10:25:54;26.45;;;4.28;;
30249;SDS011;17064;47.974;13.826;2023-06-04T10:30:56;6.17;;;2.63;;
30249;SDS011;17064;47.974;13.826;2023-06-04T10:35:57;6.80;;;3.00;;
30249;SDS011;17064;47.974;13.826;2023-06-04T10:40:57;4.53;;;2.60;;
30249;SDS011;17064;47.974;13.826;2023-06-04T10:45:58;4.80;;;2.47;;
30249;SDS011;17064;47.974;13.826;2023-06-04T10:51:15;5.05;;;3.13;;
30249;SDS011;17064;47.974;13.826;2023-06-04T10:56:24;5.07;;;2.42;;
30249;SDS011;17064;47.974;13.826;2023-06-04T11:01:26;4.75;;;2.67;;
30249;SDS011;17064;47.974;13.826;2023-06-04T11:06:28;4.35;;;3.28;;
30249;SDS011;17064;47.974;13.826;2023-06-04T11:11:30;28.48;;;3.88;;
30249;SDS011;17064;47.974;13.826;2023-06-04T11:16:31;5.35;;;2.88;;
30249;SDS011;17064;47.974;13.826;2023-06-04T11:21:35;11.32;;;2.70;;
30249;SDS011;17064;47.974;13.826;2023-06-04T11:26:36;9.02;;;3.00;;
30249;SDS011;17064;47.974;13.826;2023-06-04T11:31:41;9.82;;;3.08;;
30249;SDS011;17064;47.974;13.826;2023-06-04T11:36:45;6.57;;;2.65;;
30249;SDS011;17064;47.974;13.826;2023-06-04T11:41:52;7.60;;;2.58;;
30249;SDS011;17064;47.974;13.826;2023-06-04T11:46:54;3.20;;;1.90;;
30249;SDS011;17064;47.974;13.826;2023-06-04T11:51:55;6.97;;;2.10;;
30249;SDS011;17064;47.974;13.826;2023-06-04T11:56:55;7.15;;;3.13;;
30249;SDS011;17064;47.974;13.826;2023-06-04T12:01:56;10.60;;;3.00;;
30249;SDS011;17064;47.974;13.826;2023-06-04T12:06:58;7.43;;;2.28;;
30249;SDS011;17064;47.974;13.826;2023-06-04T12:12:04;19.27;;;3.22;;
30249;SDS011;17064;47.974;13.826;2023-06-04T12:17:06;6.30;;;2.95;;
30249;SDS011;17064;47.974;13.826;2023-06-04T12:22:10;4.13;;;2.55;;
30249;SDS011;17064;47.974;13.826;2023-06-04T12:27:11;9.87;;;2.93;;
30249;SDS011;17064;47.974;13.826;2023-06-04T12:32:12;27.42;;;3.83;;
30249;SDS011;17064;47.974;13.826;2023-06-04T12:37:13;7.65;;;2.78;;
30249;SDS011;17064;47.974;13.826;2023-06-04T12:42:14;7.68;;;2.83;;
30249;SDS011;17064;47.974;13.826;2023-06-04T12:47:15;8.25;;;3.42;;
30249;SDS011;17064;47.974;13.826;2023-06-04T12:52:17;7.45;;;2.88;;
30249;SDS011;17064;47.974;13.826;2023-06-04T12:57:17;7.18;;;3.05;;
30249;SDS011;17064;47.974;13.826;2023-06-04T13:02:18;10.45;;;3.17;;
30249;SDS011;17064;47.974;13.826;2023-06-04T13:07:19;6.18;;;2.90;;
30249;SDS011;17064;47.974;13.826;2023-06-04T13:12:20;7.38;;;2.95;;
30249;SDS011;17064;47.974;13.826;2023-06-04T13:17:21;4.75;;;2.47;;
30249;SDS011;17064;47.974;13.826;2023-06-04T13:22:21;5.35;;;2.90;;
30249;SDS011;17064;47.974;13.826;2023-06-04T13:27:22;4.53;;;2.80;;
30249;SDS011;17064;47.974;13.826;2023-06-04T13:32:23;4.97;;;2.70;;
30249;SDS011;17064;47.974;13.826;2023-06-04T13:37:23;4.40;;;2.78;;
30249;SDS011;17064;47.974;13.826;2023-06-04T13:42:24;10.07;;;3.40;;
30249;SDS011;17064;47.974;13.826;2023-06-04T13:47:25;4.80;;;2.83;;
30249;SDS011;17064;47.974;13.826;2023-06-04T13:52:25;5.35;;;2.30;;
30249;SDS011;17064;47.974;13.826;2023-06-04T13:57:28;7.25;;;2.85;;
30249;SDS011;17064;47.974;13.826;2023-06-04T14:02:29;6.07;;;2.70;;
30249;SDS011;17064;47.974;13.826;2023-06-04T14:07:30;5.47;;;2.83;;
30249;SDS011;17064;47.974;13.826;2023-06-04T14:12:30;5.60;;;2.63;;
30249;SDS011;17064;47.974;13.826;2023-06-04T14:17:31;4.97;;;3.03;;
30249;SDS011;17064;47.974;13.826;2023-06-04T14:22:34;7.88;;;2.92;;
30249;SDS011;17064;47.974;13.826;2023-06-04T14:27:39;7.40;;;2.72;;
30249;SDS011;17064;47.974;13.826;2023-06-04T14:32:40;6.40;;;2.95;;
30249;SDS011;17064;47.974;13.826;2023-06-04T14:37:40;4.28;;;2.47;;
30249;SDS011;17064;47.974;13.826;2023-06-04T14:42:41;5.47;;;2.70;;
30249;SDS011;17064;47.974;13.826;2023-06-04T14:47:42;4.30;;;2.53;;
30249;SDS011;17064;47.974;13.826;2023-06-04T14:52:42;11.18;;;3.30;;
30249;SDS011;17064;47.974;13.826;2023-06-04T14:57:43;6.05;;;2.40;;
30249;SDS011;17064;47.974;13.826;2023-06-04T15:02:44;4.00;;;2.38;;
30249;SDS011;17064;47.974;13.826;2023-06-04T15:07:44;5.07;;;2.13;;
30249;SDS011;17064;47.974;13.826;2023-06-04T15:12:45;4.68;;;2.50;;
30249;SDS011;17064;47.974;13.826;2023-06-04T15:17:47;3.88;;;2.13;;
30249;SDS011;17064;47.974;13.826;2023-06-04T15:22:49;9.02;;;2.67;;
30249;SDS011;17064;47.974;13.826;2023-06-04T15:27:49;2.80;;;2.15;;
30249;SDS011;17064;47.974;13.826;2023-06-04T15:32:50;5.20;;;3.70;;
30249;SDS011;17064;47.974;13.826;2023-06-04T15:37:52;7.03;;;3.20;;
30249;SDS011;17064;47.974;13.826;2023-06-04T15:42:52;2.80;;;2.45;;
30249;SDS011;17064;47.974;13.826;2023-06-04T15:47:53;7.30;;;2.75;;
30249;SDS011;17064;47.974;13.826;2023-06-04T15:52:55;4.33;;;2.53;;
30249;SDS011;17064;47.974;13.826;2023-06-04T15:57:55;4.03;;;2.20;;
30249;SDS011;17064;47.974;13.826;2023-06-04T16:02:56;8.63;;;2.38;;
30249;SDS011;17064;47.974;13.826;2023-06-04T16:07:57;5.40;;;2.20;;
30249;SDS011;17064;47.974;13.826;2023-06-04T16:12:58;2.45;;;1.98;;
30249;SDS011;17064;47.974;13.826;2023-06-04T16:17:58;2.75;;;1.90;;
30249;SDS011;17064;47.974;13.826;2023-06-04T16:22:59;3.63;;;1.58;;
30249;SDS011;17064;47.974;13.826;2023-06-04T16:28:00;6.82;;;2.20;;
30249;SDS011;17064;47.974;13.826;2023-06-04T16:33:00;2.85;;;2.00;;
30249;SDS011;17064;47.974;13.826;2023-06-04T16:38:02;7.82;;;2.35;;
30249;SDS011;17064;47.974;13.826;2023-06-04T16:43:03;6.45;;;2.25;;
30249;SDS011;17064;47.974;13.826;2023-06-04T16:48:06;3.17;;;2.13;;
30249;SDS011;17064;47.974;13.826;2023-06-04T16:53:07;3.08;;;2.30;;
30249;SDS011;17064;47.974;13.826;2023-06-04T16:58:07;4.63;;;2.60;;
30249;SDS011;17064;47.974;13.826;2023-06-04T17:03:08;5.63;;;2.47;;
30249;SDS011;17064;47.974;13.826;2023-06-04T17:08:09;3.97;;;2.90;;
30249;SDS011;17064;47.974;13.826;2023-06-04T17:13:11;3.00;;;2.10;;
30249;SDS011;17064;47.974;13.826;2023-06-04T17:18:11;6.55;;;2.75;;
30249;SDS011;17064;47.974;13.826;2023-06-04T17:23:22;5.57;;;2.88;;
30249;SDS011;17064;47.974;13.826;2023-06-04T17:28:24;10.73;;;2.83;;
30249;SDS011;17064;47.974;13.826;2023-06-04T17:33:26;11.17;;;3.17;;
30249;SDS011;17064;47.974;13.826;2023-06-04T17:38:26;3.95;;;2.70;;
30249;SDS011;17064;47.974;13.826;2023-06-04T17:43:27;4.97;;;3.17;;
30249;SDS011;17064;47.974;13.826;2023-06-04T17:48:28;4.68;;;3.05;;
30249;SDS011;17064;47.974;13.826;2023-06-04T17:53:29;5.63;;;3.13;;
30249;SDS011;17064;47.974;13.826;2023-06-04T17:58:30;5.47;;;2.90;;
30249;SDS011;17064;47.974;13.826;2023-06-04T18:03:31;5.45;;;3.30;;
30249;SDS011;17064;47.974;13.826;2023-06-04T18:08:31;5.57;;;3.17;;
30249;SDS011;17064;47.974;13.826;2023-06-04T18:13:32;10.23;;;3.90;;
30249;SDS011;17064;47.974;13.826;2023-06-04T18:18:33;6.50;;;3.25;;
30249;SDS011;17064;47.974;13.826;2023-06-04T18:23:33;7.38;;;4.30;;
30249;SDS011;17064;47.974;13.826;2023-06-04T18:28:34;7.50;;;3.47;;
30249;SDS011;17064;47.974;13.826;2023-06-04T18:33:35;6.05;;;3.72;;
30249;SDS011;17064;47.974;13.826;2023-06-04T18:43:38;6.38;;;3.47;;
30249;SDS011;17064;47.974;13.826;2023-06-04T18:48:39;8.35;;;3.60;;
30249;SDS011;17064;47.974;13.826;2023-06-04T18:53:40;4.63;;;3.53;;
30249;SDS011;17064;47.974;13.826;2023-06-04T18:58:41;5.85;;;3.58;;
30249;SDS011;17064;47.974;13.826;2023-06-04T19:03:44;7.75;;;4.00;;
30249;SDS011;17064;47.974;13.826;2023-06-04T19:08:45;5.40;;;4.07;;
30249;SDS011;17064;47.974;13.826;2023-06-04T19:13:46;8.15;;;3.92;;
30249;SDS011;17064;47.974;13.826;2023-06-04T19:18:46;6.72;;;4.07;;
30249;SDS011;17064;47.974;13.826;2023-06-04T19:23:47;6.30;;;4.22;;
30249;SDS011;17064;47.974;13.826;2023-06-04T19:28:48;6.25;;;3.53;;
30249;SDS011;17064;47.974;13.826;2023-06-04T19:33:50;6.63;;;4.43;;
30249;SDS011;17064;47.974;13.826;2023-06-04T19:38:51;7.07;;;4.55;;
30249;SDS011;17064;47.974;13.826;2023-06-04T19:43:52;8.32;;;4.95;;
30249;SDS011;17064;47.974;13.826;2023-06-04T19:48:52;7.22;;;5.47;;
30249;SDS011;17064;47.974;13.826;2023-06-04T19:53:53;8.15;;;5.00;;
30249;SDS011;17064;47.974;13.826;2023-06-04T19:58:55;8.48;;;5.10;;
30249;SDS011;17064;47.974;13.826;2023-06-04T20:03:56;9.82;;;5.03;;
30249;SDS011;17064;47.974;13.826;2023-06-04T20:08:56;6.03;;;4.43;;
30249;SDS011;17064;47.974;13.826;2023-06-04T20:13:57;6.63;;;4.75;;
30249;SDS011;17064;47.974;13.826;2023-06-04T20:18:58;11.13;;;5.22;;
30249;SDS011;17064;47.974;13.826;2023-06-04T20:23:59;12.68;;;5.10;;
30249;SDS011;17064;47.974;13.826;2023-06-04T20:29:00;6.68;;;4.72;;
30249;SDS011;17064;47.974;13.826;2023-06-04T20:34:00;7.88;;;4.68;;
30249;SDS011;17064;47.974;13.826;2023-06-04T20:39:01;7.50;;;5.18;;
30249;SDS011;17064;47.974;13.826;2023-06-04T20:44:03;8.05;;;4.38;;
30249;SDS011;17064;47.974;13.826;2023-06-04T20:49:03;7.88;;;5.35;;
30249;SDS011;17064;47.974;13.826;2023-06-04T20:54:04;9.15;;;5.03;;
30249;SDS011;17064;47.974;13.826;2023-06-04T20:59:05;7.57;;;5.10;;
30249;SDS011;17064;47.974;13.826;2023-06-04T21:04:06;7.20;;;4.68;;
30249;SDS011;17064;47.974;13.826;2023-06-04T21:09:08;10.35;;;4.93;;
30249;SDS011;17064;47.974;13.826;2023-06-04T21:14:08;8.98;;;4.45;;
30249;SDS011;17064;47.974;13.826;2023-06-04T21:19:09;5.82;;;4.28;;
30249;SDS011;17064;47.974;13.826;2023-06-04T21:24:10;6.68;;;4.45;;
30249;SDS011;17064;47.974;13.826;2023-06-04T21:29:11;8.27;;;4.28;;
30249;SDS011;17064;47.974;13.826;2023-06-04T21:34:11;5.32;;;3.92;;
30249;SDS011;17064;47.974;13.826;2023-06-04T21:39:12;8.90;;;4.40;;
30249;SDS011;17064;47.974;13.826;2023-06-04T21:44:13;5.78;;;4.50;;
30249;SDS011;17064;47.974;13.826;2023-06-04T21:49:13;5.07;;;3.90;;
30249;SDS011;17064;47.974;13.826;2023-06-04T21:54:14;6.28;;;4.15;;
30249;SDS011;17064;47.974;13.826;2023-06-04T21:59:15;11.07;;;4.50;;
30249;SDS011;17064;47.974;13.826;2023-06-04T22:04:15;8.43;;;4.05;;
30249;SDS011;17064;47.974;13.826;2023-06-04T22:09:16;5.20;;;3.60;;
30249;SDS011;17064;47.974;13.826;2023-06-04T22:14:17;9.98;;;3.83;;
30249;SDS011;17064;47.974;13.826;2023-06-04T22:19:17;7.47;;;4.05;;
30249;SDS011;17064;47.974;13.826;2023-06-04T22:24:18;7.95;;;3.95;;
30249;SDS011;17064;47.974;13.826;2023-06-04T22:29:19;6.00;;;3.78;;
30249;SDS011;17064;47.974;13.826;2023-06-04T22:34:20;8.23;;;3.63;;
30249;SDS011;17064;47.974;13.826;2023-06-04T22:39:20;9.38;;;3.85;;
30249;SDS011;17064;47.974;13.826;2023-06-04T22:44:21;6.50;;;4.10;;
30249;SDS011;17064;47.974;13.826;2023-06-04T22:49:22;8.38;;;3.90;;
30249;SDS011;17064;47.974;13.826;2023-06-04T22:54:23;5.72;;;3.72;;
30249;SDS011;17064;47.974;13.826;2023-06-04T22:59:23;7.30;;;3.65;;
30249;SDS011;17064;47.974;13.826;2023-06-04T23:04:26;6.57;;;4.00;;
30249;SDS011;17064;47.974;13.826;2023-06-04T23:09:27;4.90;;;3.25;;
30249;SDS011;17064;47.974;13.826;2023-06-04T23:14:27;7.55;;;3.75;;
30249;SDS011;17064;47.974;13.826;2023-06-04T23:19:28;8.05;;;4.70;;
30249;SDS011;17064;47.974;13.826;2023-06-04T23:24:29;6.70;;;4.13;;
30249;SDS011;17064;47.974;13.826;2023-06-04T23:29:30;7.45;;;3.90;;
30249;SDS011;17064;47.974;13.826;2023-06-04T23:34:31;6.55;;;3.60;;
30249;SDS011;17064;47.974;13.826;2023-06-04T23:39:31;9.50;;;3.28;;
30249;SDS011;17064;47.974;13.826;2023-06-04T23:44:32;8.13;;;4.25;;
30249;SDS011;17064;47.974;13.826;2023-06-04T23:49:33;6.13;;;4.10;;
30249;SDS011;17064;47.974;13.826;2023-06-04T23:54:34;5.57;;;3.75;;
30249;SDS011;17064;47.974;13.826;2023-06-04T23:59:35;6.55;;;4.13;;
